• Join FlightAware (Why Join?)
  • Login
  • US Flag 
04:47AM EDT


 

Airport Tracker/Info


-or-


 

Live Flight TrackerFlight Track Log ✈ FSR411 ✈ 16-Mar-2014 ✈ KBFI - KMSN

Flight Track Log - Related Links

Times and Time Zones

All times are in EDT time to prevent confusion due to time zone crossing. See the FSR411 flight status page for this flight to view local times or setup timezone preferences in your user account.

Time Position Orientation Groundspeed Altitude Reporting Facility
EDT Latitude Longitude Course Direction KTS MPH feet Rate Location/Type
06:02PM 47.5164 -122.2886 150° Southeast 157 181 900  Level Seattle Center
06:03PM 47.5022 -122.2767 150° Southeast 170 196 1,400 1,920 Climbing Seattle Center
06:04PM 47.4536 -122.2250 144° Southeast 242 278 3,500 2,100 Climbing Seattle Center
06:04PM 47.4506 -122.2203 134° Southeast 217 250 3,600 2,460 Climbing Seattle Center
06:05PM 47.4319 -122.1117 104° East 274 315 6,100 2,700 Climbing Seattle Center
06:06PM 47.4331 -121.9917 89° East 289 333 9,100 3,000 Climbing Seattle Center
06:07PM 47.4314 -121.8608 91° East 318 366 12,200 3,000 Climbing Seattle Center
06:08PM 47.4303 -121.7114 91° East 366 421 15,300 2,760 Climbing Seattle Center
06:09PM 47.4314 -121.5639 89° East 400 460 17,900 2,460 Climbing Seattle Center
06:10PM 47.4317 -121.3900 90° East 427 491 20,300 2,220 Climbing Seattle Center
06:11PM 47.4344 -121.1586 89° East 473 544 22,400 1,860 Climbing Seattle Center
06:12PM 47.4367 -120.9489 89° East 508 585 24,200 1,800 Climbing Seattle Center
06:13PM 47.4383 -120.7339 89° East 524 603 26,100 1,920 Climbing Seattle Center
06:14PM 47.4392 -120.5214 90° East 528 608 28,200 1,920 Climbing Seattle Center
06:15PM 47.4397 -120.2983 90° East 539 620 30,100 1,800 Climbing Seattle Center
06:16PM 47.4403 -120.0736 90° East 542 624 31,900 1,740 Climbing Seattle Center
06:17PM 47.4403 -119.8494 90° East 543 625 33,700 1,620 Climbing Seattle Center
06:18PM 47.4392 -119.6297 90° East 543 625 35,200 1,440 Climbing Seattle Center
06:19PM 47.4381 -119.4081 90° East 544 626 36,700 1,320 Climbing Seattle Center
06:20PM 47.4364 -119.1883 91° East 541 623 37,900 900 Climbing Seattle Center
06:21PM 47.4344 -118.9669 91° East 537 618 38,600 540 Climbing Seattle Center
06:22PM 47.4325 -118.7417 91° East 546 628 39,100 480 Climbing Seattle Center
06:23PM 47.4294 -118.5139 91° East 553 636 39,600 720 Climbing Seattle Center
06:24PM 47.4250 -118.2400 91° East 555 639 40,600 660 Climbing Seattle Center
06:25PM 47.4225 -118.0178 91° East 549 632 41,000 120 Climbing Seattle Center
06:26PM 47.4189 -117.7967 91° East 545 627 40,900 -240 Descending Seattle Center
06:27PM 47.4161 -117.5767 91° East 542 624 40,600 120 Descending Seattle Center
06:28PM 47.4117 -117.3558 92° East 543 625 41,200 240 Climbing Seattle Center
06:29PM 47.4044 -117.1406 93° East 542 624 41,100 -180 Descending Seattle Center
06:30PM 47.4017 -116.9242 91° East 541 623 40,900 -120 Descending Seattle Center
06:31PM 47.3975 -116.7075 92° East 539 620 40,900  Level Seattle Center
06:32PM 47.3864 -116.4417 93° East 543 625 40,900  Level Seattle Center
06:33PM 47.3786 -116.2228 93° East 541 623 40,900  Level Seattle Center
06:34PM 47.3742 -116.0019 92° East 541 623 40,900  Level Seattle Center
06:35PM 47.3644 -115.7817 94° East 541 623 40,900  Level Seattle Center
06:36PM 47.3586 -115.5883 92° East 541 623 40,900  Level Seattle Center
06:37PM 47.3475 -115.3239 93° East 541 623 40,900  Level Seattle Center
06:38PM 47.3378 -115.1053 94° East 541 623 40,900  Level Seattle Center
06:39PM 47.3281 -114.8844 94° East 541 623 40,900 -60 Level Seattle Center
06:40PM 47.3186 -114.6653 94° East 541 623 40,800 -300 Descending Seattle Center
06:41PM 47.3083 -114.4475 94° East 541 623 40,300 -540 Descending Seattle Center
06:42PM 47.3044 -114.3617 94° East 536 617 40,000 -1,020 Descending Salt Lake Center
06:43PM 47.3122 -114.1069 87° East 528 608 38,800 -1,140 Descending Salt Lake Center
06:44PM 47.3383 -113.8783 80° East 567 652 37,700 -900 Descending Salt Lake Center
06:45PM 47.3625 -113.6450 81° East 579 666 37,000 -360 Descending Salt Lake Center
06:46PM 47.3597 -113.4167 91° East 566 651 37,000 -60 Level Salt Lake Center
06:47PM 47.3428 -113.1858 96° East 568 654 36,900 -60 Descending Salt Lake Center
06:48PM 47.3256 -112.9197 95° East 569 655 36,900  Level Salt Lake Center
06:49PM 47.3108 -112.6819 95° East 579 666 37,000  Climbing Salt Lake Center
06:50PM 47.2944 -112.4486 96° East 579 666 37,000 360 Level Salt Lake Center
06:51PM 47.2789 -112.2219 96° East 567 652 37,800 840 Climbing Salt Lake Center
06:52PM 47.2639 -112.0092 96° East 536 617 38,800 780 Climbing Salt Lake Center
06:53PM 47.2450 -111.7522 96° East 534 615 39,500 540 Climbing Salt Lake Center
06:54PM 47.2289 -111.5361 96° East 534 615 40,000 480 Climbing Salt Lake Center
06:55PM 47.2103 -111.3147 97° East 547 629 40,500 420 Climbing Salt Lake Center
06:56PM 47.1939 -111.1000 96° East 539 620 40,900 240 Climbing Salt Lake Center
06:57PM 47.1764 -110.8872 97° East 531 611 41,000  Climbing Salt Lake Center
06:58PM 47.1542 -110.6253 97° East 541 623 41,000  Level Salt Lake Center
06:59PM 47.1356 -110.4083 97° East 541 623 41,000  Level Salt Lake Center
07:00PM 47.1158 -110.1942 98° East 532 612 41,000  Level Salt Lake Center
07:01PM 47.0986 -109.9806 97° East 532 612 41,000  Level Salt Lake Center
07:02PM 47.0803 -109.7678 97° East 531 611 41,000  Level Salt Lake Center
07:03PM 47.0594 -109.5564 98° East 530 610 41,000  Level Salt Lake Center
07:04PM 47.0378 -109.3442 98° East 529 609 41,000  Level Salt Lake Center
07:05PM 47.0125 -109.0917 98° East 527 606 41,000  Level Salt Lake Center
07:07PM 46.9906 -108.8942 99° East 510 587 41,000  Level Salt Lake Center
07:08PM 46.9708 -108.6944 98° East 499 574 41,000  Level Salt Lake Center
07:09PM 46.9506 -108.4933 98° East 498 573 41,000  Level Salt Lake Center
07:10PM 46.9281 -108.2833 99° East 516 594 41,000  Level Salt Lake Center
07:12PM 46.8781 -107.8242 99° East 518 596 41,000  Level Salt Lake Center
07:13PM 46.8547 -107.6167 99° East 519 597 41,000  Level Salt Lake Center
07:14PM 46.8314 -107.4153 100° East 513 590 41,000  Level Salt Lake Center
07:15PM 46.8083 -107.2139 99° East 507 583 41,000  Level Salt Lake Center
07:16PM 46.7842 -107.0106 100° East 507 583 41,000  Level Salt Lake Center
07:17PM 46.7594 -106.8069 100° East 507 583 41,000  Level Salt Lake Center
07:18PM 46.7342 -106.6022 100° East 508 585 41,000  Level Salt Lake Center
07:19PM 46.7036 -106.3567 100° East 509 586 41,000  Level Salt Lake Center
07:20PM 46.6772 -106.1536 101° East 509 586 41,000  Level Salt Lake Center
07:21PM 46.6511 -105.9522 101° East 509 586 41,000  Level Salt Lake Center
07:22PM 46.6253 -105.7519 101° East 509 586 41,000  Level Salt Lake Center
07:23PM 46.5989 -105.5539 101° East 509 586 41,000  Level Salt Lake Center
07:24PM 46.5717 -105.3486 101° East 509 586 41,000  Level Salt Lake Center
07:25PM 46.5442 -105.1442 101° East 509 586 41,000  Level Salt Lake Center
07:26PM 46.5156 -104.9392 101° East 512 589 41,000  Level Salt Lake Center
07:27PM 46.4836 -104.7011 101° East 513 590 41,000  Level Salt Lake Center
07:28PM 46.4544 -104.4981 102° East 513 590 41,000  Level Salt Lake Center
07:29PM 46.4256 -104.2983 102° East 513 590 41,000  Level Salt Lake Center
07:30PM 46.3975 -104.0994 101° East 512 589 41,000  Level Salt Lake Center
07:31PM 46.3689 -103.9036 102° East 506 582 41,000  Level Salt Lake Center
07:32PM 46.3397 -103.7067 102° East 506 582 41,000  Level Salt Lake Center
07:33PM 46.3047 -103.4706 102° East 506 582 41,000  Level Salt Lake Center
07:34PM 46.2753 -103.2767 102° East 505 581 41,000  Level Salt Lake Center
07:35PM 46.2519 -103.1231 102° East 497 572 41,000  Level Minneapolis Center
07:36PM 46.2228 -102.9250 102° East 501 577 41,000  Level Minneapolis Center
07:37PM 46.1914 -102.7314 103° East 501 577 41,000  Level Minneapolis Center
07:38PM 46.1603 -102.5336 103° East 502 578 41,000  Level Minneapolis Center
07:39PM 46.1283 -102.3406 103° East 504 580 41,000  Level Minneapolis Center
07:40PM 46.0892 -102.1061 103° East 504 580 41,000  Level Minneapolis Center
07:41PM 46.0578 -101.9100 103° East 504 580 41,000  Level Minneapolis Center
07:42PM 46.0225 -101.7172 105° East 504 580 41,000  Level Minneapolis Center
07:43PM 45.9889 -101.5231 104° East 503 579 41,000  Level Minneapolis Center
07:44PM 45.9561 -101.3278 104° East 503 579 41,000 -240 Level Minneapolis Center
07:45PM 45.9236 -101.1306 103° East 503 579 40,600 -480 Descending Minneapolis Center
07:46PM 45.8878 -100.9333 105° East 506 582 40,100 -540 Descending Minneapolis Center
07:47PM 45.8539 -100.7369 104° East 506 582 39,600 -540 Descending Minneapolis Center
07:48PM 45.8181 -100.5389 104° East 509 586 39,000 -300 Descending Minneapolis Center
07:49PM 45.7733 -100.2969 105° East 518 596 39,000  Level Minneapolis Center
07:50PM 45.7356 -100.0950 105° East 521 600 39,000  Level Minneapolis Center
07:51PM 45.6992 -99.8931 104° East 521 600 39,000  Level Minneapolis Center
07:52PM 45.6611 -99.6925 105° East 521 600 39,000  Level Minneapolis Center
07:54PM 45.6233 -99.4950 105° East 520 598 39,000  Level Minneapolis Center
07:55PM 45.5856 -99.2997 105° East 515 593 39,000  Level Minneapolis Center
07:56PM 45.5483 -99.1067 105° East 511 588 39,000  Level Minneapolis Center
07:57PM 45.5100 -98.9125 106° East 509 586 39,000  Level Minneapolis Center
07:58PM 45.4714 -98.7208 106° East 507 583 39,000  Level Minneapolis Center
07:59PM 45.4253 -98.4911 106° East 506 582 39,000  Level Minneapolis Center
08:00PM 45.3872 -98.2981 106° East 506 582 39,000  Level Minneapolis Center
08:01PM 45.3472 -98.1072 107° East 506 582 39,000  Level Minneapolis Center
08:02PM 45.3111 -97.9278 106° East 507 583 39,000  Level Minneapolis Center
08:03PM 45.2714 -97.7375 106° East 506 582 39,000  Level Minneapolis Center
08:04PM 45.2308 -97.5483 107° East 505 581 39,000 -60 Level Minneapolis Center
08:05PM 45.1842 -97.3244 106° East 500 575 38,900 -540 Descending Minneapolis Center
08:06PM 45.1444 -97.1400 107° East 492 566 37,900 -960 Descending Minneapolis Center
08:07PM 45.1014 -96.9464 107° East 506 582 37,000 -480 Descending Minneapolis Center
08:08PM 45.0594 -96.7461 106° East 525 604 37,000  Level Minneapolis Center
08:09PM 45.0144 -96.5478 108° East 528 608 37,000  Level Minneapolis Center
08:10PM 44.9717 -96.3503 107° East 528 608 37,000  Level Minneapolis Center
08:11PM 44.9278 -96.1553 108° East 524 603 37,000  Level Minneapolis Center
08:12PM 44.8847 -95.9647 108° East 514 592 37,000  Level Minneapolis Center
08:13PM 44.8411 -95.7744 108° East 510 587 37,000  Level Minneapolis Center
08:14PM 44.7881 -95.5444 108° East 511 588 37,000 -60 Level Minneapolis Center
08:15PM 44.7436 -95.3533 108° East 511 588 36,900 -600 Descending Minneapolis Center
08:16PM 44.6994 -95.1667 108° East 506 582 35,800 -960 Descending Minneapolis Center
08:17PM 44.6547 -94.9669 107° East 524 603 35,000 -420 Descending Minneapolis Center
08:18PM 44.6058 -94.7681 109° East 533 613 35,000  Level Minneapolis Center
08:19PM 44.5550 -94.5550 108° East 533 613 35,000  Level Minneapolis Center
08:20PM 44.5075 -94.3586 109° East 533 613 35,000  Level Minneapolis Center
08:21PM 44.4597 -94.1658 109° East 533 613 35,000  Level Minneapolis Center
08:22PM 44.4108 -93.9742 110° East 531 611 35,000  Level Minneapolis Center
08:23PM 44.3639 -93.7839 109° East 528 608 35,000 -300 Level Minneapolis Center
08:24PM 44.3153 -93.5956 110° East 524 603 34,400 -900 Descending Minneapolis Center
08:25PM 44.2581 -93.3675 109° East 524 603 33,200 -1,080 Descending Minneapolis Center
08:26PM 44.2108 -93.1839 110° East 512 589 32,200 -1,020 Descending Minneapolis Center
08:27PM 44.1639 -93.0014 110° East 507 583 31,200 -1,020 Descending Minneapolis Center
08:28PM 44.1158 -92.8169 110° East 509 586 30,200 -1,020 Descending Minneapolis Center
08:29PM 44.0678 -92.6306 110° East 513 590 29,200 -600 Descending Minneapolis Center
08:30PM 44.0175 -92.4447 111° Southeast 513 590 29,000 -120 Descending Minneapolis Center
08:31PM 43.9689 -92.2594 110° East 514 592 29,000  Level Minneapolis Center
08:33PM 43.9081 -92.0319 110° East 523 602 29,000  Level Minneapolis Center
08:34PM 43.8567 -91.8442 111° Southeast 524 603 29,000 -120 Level Minneapolis Center
08:35PM 43.8092 -91.6686 110° East 522 601 28,800 -720 Descending Minneapolis Center
08:36PM 43.7594 -91.4889 111° Southeast 509 586 27,600 -1,620 Descending Minneapolis Center
08:37PM 43.7114 -91.3122 111° Southeast 500 575 25,600 -2,100 Descending Minneapolis Center
08:38PM 43.6536 -91.1058 111° Southeast 487 560 23,300 -1,860 Descending Minneapolis Center
08:39PM 43.6064 -90.9414 112° Southeast 470 541 21,800 -1,740 Descending Minneapolis Center
08:39PM 43.5817 -90.8497 110° East 459 528 20,600 -1,980 Descending Chicago Center
08:40PM 43.5372 -90.6931 111° Southeast 446 513 18,600 -1,740 Descending Chicago Center
08:41PM 43.4944 -90.5442 112° Southeast 427 491 17,100 -1,620 Descending Chicago Center
08:42PM 43.4511 -90.3933 112° Southeast 425 489 15,300 -1,860 Descending Chicago Center
08:43PM 43.4014 -90.2231 112° Southeast 415 478 13,300 -1,860 Descending Chicago Center
08:44PM 43.3464 -90.1017 122° Southeast 383 441 11,500 -1,740 Descending Chicago Center
08:45PM 43.2942 -89.9861 122° Southeast 367 422 9,800 -1,620 Descending Chicago Center
08:46PM 43.2517 -89.8881 121° Southeast 319 367 8,200 -1,680 Descending Chicago Center
08:48PM 43.2150 -89.7997 120° Southeast 283 326 6,300 -1,980 Descending Chicago Center
08:49PM 43.1731 -89.7008 120° Southeast 261 300 4,100 -1,380 Descending Chicago Center
08:50PM 43.1392 -89.6228 121° Southeast 250 288 3,500 -300 Descending Chicago Center
08:51PM 43.1036 -89.5478 123° Southeast 242 278 3,500 -60 Level Chicago Center
08:52PM 43.0725 -89.4847 124° Southeast 223 257 3,400 -420 Descending Chicago Center
08:53PM 43.0642 -89.4250 101° East 191 220 2,700 -780 Descending Chicago Center
08:54PM 43.0656 -89.3628 88° East 158 182 1,900 -600 Descending Chicago Center
08:55PM 43.0964 -89.3450 23° Northeast 137 158 1,500 -360 Descending Chicago Center
08:56PM 43.1267 -89.3383 North 131 151 1,200 -300 Descending Chicago Center